Terminal Aerodrome Forecast
Issued by NWS Binghamton, NY

Home | Current Version | Previous Version | Text Only | Print | Product List | Glossary On
Versions: 1 2 3 4 5 6 7 8 9 10 11 12 13 14 15 16 17
000
FTUS41 KBGM 250846 AAA
TAFAVP
TAF AMD
KAVP 250846Z 2509/2606 VRB03KT P6SM SCT150 BKN200
     FM251300 23008KT P6SM SCT200
     FM251700 22010G18KT P6SM SCT200
     FM260000 22007KT P6SM BKN150=

USA.gov is the U.S. government's official web portal to all federal, state and local government web resources and services.